createdAt,value
2023-05-19T00:00:08.315Z,2.08
2023-05-19T00:03:54.801Z,1.90
2023-05-19T00:07:39.135Z,2.05
2023-05-19T00:11:22.990Z,2.33
2023-05-19T00:15:05.855Z,2.22
2023-05-19T00:18:48.360Z,2.15
2023-05-19T00:22:30.467Z,2.05
2023-05-19T00:26:12.829Z,2.47
2023-05-19T00:29:55.278Z,1.80
2023-05-19T00:33:37.184Z,2.50
2023-05-19T00:37:19.179Z,2.45
2023-05-19T00:41:02.164Z,2.47
2023-05-19T00:44:44.227Z,2.72
2023-05-19T00:48:26.725Z,2.50
2023-05-19T00:52:08.734Z,2.30
2023-05-19T00:55:51.002Z,2.25
2023-05-19T00:59:33.093Z,2.58
2023-05-19T01:03:15.271Z,2.38
2023-05-19T01:06:57.625Z,2.63
2023-05-19T01:10:39.867Z,3.03
2023-05-19T01:14:22.135Z,2.60
2023-05-19T01:18:19.632Z,2.33
2023-05-19T01:22:14.765Z,2.15
2023-05-19T01:26:31.645Z,2.90
2023-05-19T01:30:27.960Z,2.33
2023-05-19T01:34:12.266Z,2.30
2023-05-19T01:38:01.542Z,2.40
2023-05-19T01:41:45.850Z,2.65
2023-05-19T01:45:33.094Z,2.50
2023-05-19T01:49:15.451Z,3.35
2023-05-19T01:52:57.471Z,3.10
2023-05-19T01:56:58.017Z,2.90
2023-05-19T02:00:53.387Z,2.58
2023-05-19T02:04:47.274Z,2.75
2023-05-19T02:08:41.800Z,2.92
2023-05-19T02:12:29.264Z,2.60
2023-05-19T02:16:13.708Z,2.40
2023-05-19T02:19:56.846Z,2.88
2023-05-19T02:23:39.907Z,3.10
2023-05-19T02:27:21.916Z,2.85
2023-05-19T02:31:05.903Z,2.78
2023-05-19T02:34:48.078Z,2.40
2023-05-19T02:38:30.030Z,3.10
2023-05-19T02:42:12.540Z,3.08
2023-05-19T02:45:54.529Z,3.28
2023-05-19T02:49:36.440Z,2.60
2023-05-19T02:53:18.541Z,2.90
2023-05-19T02:57:01.551Z,3.05
2023-05-19T03:00:45.321Z,3.13
2023-05-19T03:04:28.120Z,3.08
2023-05-19T03:08:10.575Z,2.78
2023-05-19T03:11:52.528Z,2.80
2023-05-19T03:15:34.522Z,3.30
2023-05-19T03:19:16.602Z,3.35
2023-05-19T03:22:58.830Z,3.72
2023-05-19T03:26:41.103Z,4.40
2023-05-19T03:30:23.037Z,3.38
2023-05-19T03:34:04.987Z,3.30
2023-05-19T03:37:47.225Z,3.07
2023-05-19T03:41:29.165Z,3.33
2023-05-19T03:45:11.368Z,3.55
2023-05-19T03:48:53.559Z,2.80
2023-05-19T03:52:36.335Z,3.03
2023-05-19T03:56:18.478Z,3.63
2023-05-19T04:00:00.468Z,3.35
2023-05-19T04:03:42.483Z,3.03
2023-05-19T04:07:24.514Z,3.05
2023-05-19T04:11:06.491Z,3.13
2023-05-19T04:14:48.531Z,2.90
2023-05-19T04:18:30.715Z,3.78
2023-05-19T04:22:12.670Z,4.07
2023-05-19T04:25:55.225Z,3.90
2023-05-19T04:33:37.838Z,3.78
2023-05-19T04:37:20.241Z,3.60
2023-05-19T04:41:10.723Z,4.20
2023-05-19T04:44:53.119Z,4.00
2023-05-19T04:48:35.261Z,3.80
2023-05-19T04:53:03.947Z,3.77
2023-05-19T04:57:10.670Z,3.53
2023-05-19T05:00:55.912Z,3.97
2023-05-19T05:05:24.584Z,4.20
2023-05-19T05:09:35.879Z,4.30
2023-05-19T05:13:19.408Z,4.30
2023-05-19T05:17:31.023Z,3.88
2023-05-19T05:21:13.342Z,4.00
2023-05-19T05:25:24.098Z,4.05
2023-05-19T05:29:06.746Z,3.40
2023-05-19T05:36:52.635Z,4.03
2023-05-19T05:41:10.249Z,3.45
2023-05-19T05:44:53.018Z,3.87
2023-05-19T05:49:03.277Z,3.97
2023-05-19T05:52:47.549Z,4.07
2023-05-19T06:00:34.784Z,4.35
2023-05-19T06:09:21.133Z,4.70
2023-05-19T06:13:03.131Z,3.33
2023-05-19T06:17:13.336Z,4.72
2023-05-19T06:20:56.150Z,4.22
2023-05-19T06:28:38.507Z,4.03
2023-05-19T06:36:32.494Z,4.63
2023-05-19T06:40:50.474Z,3.80
2023-05-19T07:02:27.832Z,4.22
2023-05-19T07:10:17.776Z,4.10
2023-05-19T07:19:13.942Z,4.75
2023-05-19T07:28:10.770Z,4.53
2023-05-19T07:41:54.317Z,4.25
2023-05-19T08:12:15.265Z,4.97
2023-05-19T08:24:32.508Z,5.65
2023-05-19T08:42:32.587Z,6.28
2023-05-19T08:56:05.570Z,6.38
2023-05-19T09:00:34.457Z,6.38
2023-05-19T09:09:34.977Z,5.30
2023-05-19T09:23:05.774Z,5.95
2023-05-19T09:32:16.913Z,6.63
2023-05-19T09:36:37.503Z,6.38
2023-05-19T09:45:12.175Z,6.47
2023-05-19T10:01:31.609Z,5.90
2023-05-19T10:05:52.194Z,6.25
2023-05-19T10:45:22.774Z,6.33
2023-05-19T10:54:18.951Z,5.78
2023-05-19T11:03:18.993Z,6.57
2023-05-19T11:12:20.268Z,6.05
2023-05-19T11:29:24.053Z,6.27
2023-05-19T11:47:15.863Z,6.40
2023-05-19T12:00:48.592Z,5.87
2023-05-19T12:14:16.376Z,5.97
2023-05-19T12:23:18.346Z,5.65
2023-05-19T12:32:19.458Z,5.72
2023-05-19T12:36:49.314Z,6.05
2023-05-19T12:41:19.871Z,5.82
2023-05-19T12:50:20.672Z,5.45
2023-05-19T12:59:30.937Z,5.80
2023-05-19T13:27:33.696Z,5.90
2023-05-19T13:32:01.622Z,5.63
2023-05-19T13:36:31.532Z,6.28
2023-05-19T13:41:03.352Z,5.90
2023-05-19T13:54:30.463Z,6.13
2023-05-19T14:27:11.034Z,5.37
2023-05-19T14:40:54.274Z,4.30
2023-05-19T15:18:06.530Z,5.85
2023-05-19T15:22:27.329Z,6.43
2023-05-19T15:57:27.450Z,5.63
2023-05-19T16:33:34.768Z,5.68
2023-05-19T16:38:05.428Z,5.95
2023-05-19T16:47:00.896Z,6.07
2023-05-19T17:02:48.099Z,9.90
2023-05-19T17:16:16.544Z,5.50
2023-05-19T17:25:20.735Z,5.38
2023-05-19T17:34:19.612Z,4.60
2023-05-19T17:38:50.544Z,4.70
2023-05-19T17:43:18.428Z,7.83
2023-05-19T17:47:49.483Z,8.50
2023-05-19T17:52:20.272Z,12.40
2023-05-19T18:05:54.640Z,10.60
2023-05-19T18:10:21.024Z,6.75
2023-05-19T18:14:51.403Z,7.07
2023-05-19T18:23:54.360Z,6.78
2023-05-19T18:40:47.460Z,7.60
2023-05-19T18:45:17.923Z,7.93
2023-05-19T18:54:16.777Z,6.00
2023-05-19T19:03:17.714Z,6.03
2023-05-19T19:45:03.138Z,3.90
2023-05-19T19:54:04.480Z,4.40
2023-05-19T20:07:21.011Z,4.65
2023-05-19T20:11:03.179Z,4.63
2023-05-19T20:14:46.420Z,4.32
2023-05-19T20:18:30.061Z,5.10
2023-05-19T20:22:12.369Z,5.20
2023-05-19T20:26:06.671Z,5.10
2023-05-19T20:29:53.813Z,5.28
2023-05-19T20:33:36.079Z,5.63
2023-05-19T20:37:18.123Z,5.40
2023-05-19T20:41:00.167Z,5.97
2023-05-19T20:44:42.447Z,5.35
2023-05-19T20:48:24.566Z,4.73
2023-05-19T20:52:07.153Z,5.13
2023-05-19T20:55:49.476Z,5.13
2023-05-19T20:59:31.676Z,5.43
2023-05-19T21:03:13.861Z,5.45
2023-05-19T21:06:56.182Z,5.35
2023-05-19T21:10:38.488Z,5.22
2023-05-19T21:14:23.398Z,5.07
2023-05-19T21:18:07.452Z,6.07
2023-05-19T21:21:50.139Z,5.45
2023-05-19T21:25:32.143Z,6.70
2023-05-19T21:29:14.127Z,6.65
2023-05-19T21:32:56.254Z,6.80
2023-05-19T21:36:38.429Z,6.72
2023-05-19T21:40:20.448Z,7.65
2023-05-19T21:44:02.630Z,6.97
2023-05-19T21:47:44.549Z,7.30
2023-05-19T21:51:29.304Z,6.50
2023-05-19T21:55:11.443Z,7.25
2023-05-19T21:58:53.669Z,7.20
2023-05-19T22:02:35.888Z,7.33
2023-05-19T22:06:17.922Z,6.60
2023-05-19T22:09:59.931Z,7.50
2023-05-19T22:13:42.248Z,7.00
2023-05-19T22:17:24.555Z,7.18
2023-05-19T22:21:06.681Z,7.00
2023-05-19T22:24:49.060Z,8.35
2023-05-19T22:28:31.066Z,8.33
2023-05-19T22:32:14.178Z,8.55
2023-05-19T22:35:56.194Z,8.18
2023-05-19T22:39:39.384Z,8.50
2023-05-19T22:43:21.335Z,7.40
2023-05-19T22:47:03.297Z,7.80
2023-05-19T22:50:45.357Z,8.23
2023-05-19T22:54:27.426Z,7.80
2023-05-19T22:58:09.463Z,7.78
2023-05-19T23:01:51.450Z,8.55
2023-05-19T23:05:33.875Z,7.33
2023-05-19T23:09:16.393Z,8.05
2023-05-19T23:12:58.401Z,7.25
2023-05-19T23:16:40.445Z,7.40
2023-05-19T23:20:22.471Z,7.75
2023-05-19T23:24:05.834Z,8.00
2023-05-19T23:27:47.955Z,8.18
2023-05-19T23:31:30.033Z,8.15
2023-05-19T23:35:13.483Z,8.35
2023-05-19T23:38:55.619Z,8.05
2023-05-19T23:42:37.794Z,8.43
2023-05-19T23:46:19.809Z,8.20
2023-05-19T23:50:01.936Z,7.97
2023-05-19T23:53:43.900Z,8.33
2023-05-19T23:57:25.836Z,8.32
